Time;durP1;ratioP1;P1;durP2;ratioP2;P2;SDS_P1;SDS_P2;PMS_P1;PMS_P2;Temp;Humidity;BMP_temperature;BMP_pressure;BME280_temperature;BME280_humidity;BME280_pressure;Samples;Min_cycle;Max_cycle;Signal;HPM_P1;HPM_P2
2023/01/08 00:00:46;;;;;;;10.73;7.90;;;12.10;99.90;;;;;;5017289;28;20442;-72
2023/01/08 00:03:12;;;;;;;9.20;7.60;;;12.10;99.90;;;;;;5016614;28;20443;-72
2023/01/08 00:05:38;;;;;;;10.13;8.50;;;12.10;99.90;;;;;;5012890;28;20288;-72
2023/01/08 00:08:04;;;;;;;9.27;7.80;;;12.10;99.90;;;;;;5016271;28;20681;-72
2023/01/08 00:10:30;;;;;;;8.23;7.30;;;12.10;99.90;;;;;;5015368;28;20189;-72
2023/01/08 00:12:56;;;;;;;9.43;7.80;;;12.10;99.90;;;;;;5017128;28;20419;-72
2023/01/08 00:15:22;;;;;;;10.97;8.63;;;12.10;99.90;;;;;;5016011;28;20177;-72
2023/01/08 00:17:48;;;;;;;9.67;8.67;;;12.10;99.90;;;;;;5020397;28;20216;-72
2023/01/08 00:20:13;;;;;;;10.53;8.10;;;12.00;99.90;;;;;;5013390;28;20466;-71
2023/01/08 00:22:39;;;;;;;11.20;9.07;;;12.10;99.90;;;;;;5016635;28;20189;-72
2023/01/08 00:25:05;;;;;;;10.77;8.60;;;12.10;99.90;;;;;;5015645;28;20185;-71
2023/01/08 00:27:31;;;;;;;10.50;9.03;;;12.00;99.90;;;;;;5017284;28;20235;-72
2023/01/08 00:29:56;;;;;;;10.30;8.50;;;12.00;99.90;;;;;;5016881;28;20457;-71
2023/01/08 00:32:22;;;;;;;10.70;8.90;;;12.00;99.90;;;;;;5013798;28;20170;-72
2023/01/08 00:34:47;;;;;;;12.30;9.67;;;12.00;99.90;;;;;;5014831;28;20748;-72
2023/01/08 00:37:17;;;;;;;11.30;9.27;;;12.00;99.90;;;;;;5021973;28;20207;-72
2023/01/08 00:39:43;;;;;;;13.27;9.30;;;12.00;99.90;;;;;;5018242;28;20185;-72
2023/01/08 00:42:09;;;;;;;11.80;9.30;;;12.00;99.90;;;;;;5022452;28;20810;-72
2023/01/08 00:44:34;;;;;;;12.77;9.33;;;12.00;99.90;;;;;;5017621;28;20270;-72
2023/01/08 00:47:00;;;;;;;11.00;9.23;;;12.00;99.90;;;;;;5020204;28;20614;-72
2023/01/08 00:49:25;;;;;;;11.40;8.43;;;12.00;99.90;;;;;;5018490;28;20207;-71
2023/01/08 00:51:51;;;;;;;11.13;9.27;;;11.90;99.90;;;;;;5015566;28;20494;-71
2023/01/08 00:54:16;;;;;;;10.03;8.80;;;11.90;99.90;;;;;;5014333;28;20251;-71
2023/01/08 00:56:42;;;;;;;10.30;8.37;;;11.90;99.90;;;;;;5020471;28;20207;-71
2023/01/08 00:59:07;;;;;;;10.00;8.53;;;11.90;99.90;;;;;;5018751;28;20199;-74
2023/01/08 01:01:33;;;;;;;10.83;7.77;;;11.90;99.90;;;;;;5017077;28;20191;-78
2023/01/08 01:03:59;;;;;;;11.30;9.20;;;11.90;99.90;;;;;;5020099;28;20177;-74
2023/01/08 01:06:24;;;;;;;9.37;7.47;;;11.90;99.90;;;;;;5019835;28;20204;-73
2023/01/08 01:08:50;;;;;;;11.10;8.20;;;11.90;99.90;;;;;;5020124;28;20534;-73
2023/01/08 01:11:21;;;;;;;9.60;8.17;;;11.90;99.90;;;;;;5020145;28;20219;-74
2023/01/08 01:13:47;;;;;;;11.03;7.83;;;11.90;99.90;;;;;;5018603;28;21994;-74
2023/01/08 01:16:13;;;;;;;8.70;7.37;;;11.90;99.90;;;;;;5011267;28;20660;-75
2023/01/08 01:18:39;;;;;;;10.33;7.83;;;11.90;99.90;;;;;;5012866;28;20529;-73
2023/01/08 01:21:22;;;;;;;11.17;7.67;;;11.90;99.90;;;;;;5019531;28;20427;-74
2023/01/08 01:23:48;;;;;;;9.10;7.87;;;11.90;99.90;;;;;;5017699;28;20184;-73
2023/01/08 01:26:19;;;;;;;9.10;7.70;;;11.90;99.90;;;;;;5017343;28;20504;-74
2023/01/08 01:28:47;;;;;;;8.17;7.30;;;11.90;99.90;;;;;;5015247;28;20215;-73
2023/01/08 01:31:13;;;;;;;8.77;7.67;;;11.90;99.90;;;;;;5014823;28;20836;-74
2023/01/08 01:33:40;;;;;;;9.60;7.87;;;11.90;99.90;;;;;;5012458;28;20462;-73
2023/01/08 01:36:05;;;;;;;8.90;7.90;;;11.90;99.90;;;;;;5016773;28;20308;-73
2023/01/08 01:38:31;;;;;;;12.40;8.10;;;11.80;99.90;;;;;;5014893;28;20431;-73
2023/01/08 01:40:57;;;;;;;9.70;8.20;;;11.90;99.90;;;;;;5017345;28;21086;-73
2023/01/08 01:43:40;;;;;;;8.83;7.57;;;11.90;99.90;;;;;;5021480;28;20207;-73
2023/01/08 01:46:16;;;;;;;8.50;7.63;;;11.90;99.90;;;;;;5015537;28;20208;-73
2023/01/08 01:48:42;;;;;;;9.37;8.00;;;11.90;99.90;;;;;;5015382;28;20557;-73
2023/01/08 01:51:07;;;;;;;9.33;7.50;;;11.90;99.90;;;;;;5014231;28;20459;-73
2023/01/08 01:53:35;;;;;;;11.27;7.93;;;11.90;99.90;;;;;;5020816;28;20506;-73
2023/01/08 01:56:02;;;;;;;10.10;8.10;;;11.90;99.90;;;;;;5021336;28;20216;-73
2023/01/08 01:58:29;;;;;;;8.60;7.70;;;11.90;99.90;;;;;;5021737;28;20968;-74
2023/01/08 02:00:59;;;;;;;9.57;7.30;;;11.90;99.90;;;;;;5017197;28;20443;-74
2023/01/08 02:03:28;;;;;;;11.17;7.83;;;11.80;99.90;;;;;;5016682;28;20521;-73
2023/01/08 02:06:06;;;;;;;10.27;7.03;;;11.90;99.90;;;;;;5016604;28;20456;-74
2023/01/08 02:08:31;;;;;;;9.37;7.80;;;11.90;99.90;;;;;;5016507;28;20470;-74
2023/01/08 02:11:07;;;;;;;9.50;8.20;;;11.90;99.90;;;;;;5014302;28;20827;-73
2023/01/08 02:13:39;;;;;;;10.30;8.30;;;11.90;99.90;;;;;;5013123;28;20648;-73
2023/01/08 02:16:31;;;;;;;10.30;7.80;;;11.90;99.90;;;;;;5017819;28;20457;-73
2023/01/08 02:19:03;;;;;;;8.43;7.43;;;11.90;99.90;;;;;;5014732;28;20430;-73
2023/01/08 02:21:47;;;;;;;10.10;8.10;;;11.90;99.90;;;;;;5017133;28;20443;-73
2023/01/08 02:24:24;;;;;;;13.90;7.97;;;11.90;99.90;;;;;;5016723;28;20422;-73
2023/01/08 02:26:52;;;;;;;9.57;7.70;;;11.90;99.90;;;;;;5019769;28;21600;-73
2023/01/08 02:29:23;;;;;;;10.03;8.53;;;11.90;99.90;;;;;;5015182;28;20530;-72
2023/01/08 02:31:48;;;;;;;12.40;8.77;;;11.90;99.90;;;;;;5019220;28;20466;-73
2023/01/08 02:34:14;;;;;;;8.57;7.67;;;11.80;99.90;;;;;;5018445;28;20451;-73
2023/01/08 02:36:43;;;;;;;10.97;8.03;;;11.80;99.90;;;;;;5014428;28;20647;-72
2023/01/08 02:39:34;;;;;;;9.03;8.10;;;11.90;99.90;;;;;;5012309;28;20191;-72
2023/01/08 02:42:06;;;;;;;9.70;6.77;;;11.90;99.90;;;;;;5016179;28;20455;-73
2023/01/08 02:44:51;;;;;;;9.60;7.80;;;11.90;99.90;;;;;;5019179;28;20790;-72
2023/01/08 02:47:55;;;;;;;7.87;7.07;;;11.90;99.90;;;;;;5014510;28;20470;-74
2023/01/08 02:50:32;;;;;;;10.23;7.63;;;11.90;99.90;;;;;;5009497;28;20459;-73
2023/01/08 02:53:12;;;;;;;9.33;7.97;;;11.90;99.90;;;;;;5017779;28;20429;-73
2023/01/08 02:55:42;;;;;;;9.47;7.30;;;11.90;99.90;;;;;;5010509;28;20486;-73
2023/01/08 02:58:08;;;;;;;10.00;7.90;;;11.90;99.90;;;;;;5013760;28;20800;-74
2023/01/08 03:00:34;;;;;;;10.73;8.30;;;12.00;99.90;;;;;;5016866;28;21167;-73
2023/01/08 03:03:27;;;;;;;13.20;7.50;;;12.00;99.90;;;;;;5012383;28;21035;-74
2023/01/08 03:05:57;;;;;;;8.07;6.77;;;12.00;99.90;;;;;;5013706;28;20566;-73
2023/01/08 03:08:23;;;;;;;10.00;7.60;;;12.00;99.90;;;;;;5015213;28;20467;-73
2023/01/08 03:10:59;;;;;;;12.80;8.80;;;12.00;99.90;;;;;;5018038;28;20442;-73
2023/01/08 03:13:34;;;;;;;9.93;8.47;;;12.00;99.90;;;;;;5013504;28;20812;-74
2023/01/08 03:16:04;;;;;;;10.97;8.63;;;12.00;99.90;;;;;;5016596;28;21065;-73
2023/01/08 03:18:34;;;;;;;12.10;9.13;;;12.00;99.90;;;;;;5017891;28;21272;-73
2023/01/08 03:21:02;;;;;;;11.33;9.33;;;12.00;99.90;;;;;;5020096;28;20970;-73
2023/01/08 03:23:30;;;;;;;13.20;9.87;;;12.00;99.90;;;;;;5017939;28;20423;-74
2023/01/08 03:25:59;;;;;;;12.50;9.27;;;11.90;99.90;;;;;;5014650;28;20467;-73
2023/01/08 03:28:29;;;;;;;14.30;9.93;;;11.90;99.90;;;;;;5015834;28;20479;-73
2023/01/08 03:30:57;;;;;;;10.80;8.47;;;12.00;99.90;;;;;;5016756;28;20426;-73
2023/01/08 03:33:24;;;;;;;11.00;9.20;;;11.90;99.90;;;;;;5017774;28;20657;-73
2023/01/08 03:35:53;;;;;;;10.87;8.30;;;11.90;99.90;;;;;;5014994;28;20849;-73
2023/01/08 03:38:43;;;;;;;11.80;8.57;;;11.90;99.90;;;;;;5012650;28;20439;-73
2023/01/08 03:41:17;;;;;;;13.63;9.30;;;11.90;99.90;;;;;;5019009;28;20959;-73
2023/01/08 03:43:43;;;;;;;13.40;9.03;;;11.90;99.90;;;;;;5016160;28;20892;-73
2023/01/08 03:46:13;;;;;;;11.60;8.50;;;11.90;99.90;;;;;;5015185;28;20462;-73
2023/01/08 03:48:40;;;;;;;11.73;9.33;;;11.90;99.90;;;;;;5010962;28;20744;-73
2023/01/08 03:51:09;;;;;;;11.23;9.40;;;11.90;99.90;;;;;;5016300;28;20505;-73
2023/01/08 03:53:35;;;;;;;11.30;9.40;;;11.90;99.90;;;;;;5011390;28;20520;-74
2023/01/08 03:56:01;;;;;;;11.50;9.17;;;11.90;99.90;;;;;;5017011;28;20843;-73
2023/01/08 03:58:26;;;;;;;10.33;9.07;;;11.90;99.90;;;;;;5013772;28;20508;-73
2023/01/08 04:00:52;;;;;;;9.13;8.23;;;11.90;99.90;;;;;;5014224;28;20188;-74
2023/01/08 04:03:18;;;;;;;10.10;8.60;;;11.90;99.90;;;;;;5015575;28;20630;-74
2023/01/08 04:05:44;;;;;;;10.67;8.10;;;11.90;99.90;;;;;;5016959;28;20291;-74
2023/01/08 04:08:09;;;;;;;13.80;9.50;;;11.90;99.90;;;;;;5018948;28;20546;-74
2023/01/08 04:10:35;;;;;;;12.80;9.77;;;11.90;99.90;;;;;;5014071;28;20238;-74
2023/01/08 04:13:00;;;;;;;11.33;8.73;;;11.90;99.90;;;;;;5020075;28;20198;-75
2023/01/08 04:15:26;;;;;;;11.20;8.43;;;12.00;99.90;;;;;;5016244;28;20215;-74
2023/01/08 04:17:52;;;;;;;11.90;9.40;;;12.00;99.90;;;;;;5020737;28;20180;-74
2023/01/08 04:20:18;;;;;;;14.67;8.73;;;12.00;99.90;;;;;;5019828;28;20219;-74
2023/01/08 04:22:43;;;;;;;11.00;8.80;;;12.00;99.90;;;;;;5018026;28;20944;-73
2023/01/08 04:25:09;;;;;;;9.93;8.93;;;12.00;99.90;;;;;;5020002;28;20278;-74
2023/01/08 04:27:35;;;;;;;10.57;8.40;;;12.00;99.90;;;;;;5015803;28;20212;-74
2023/01/08 04:30:01;;;;;;;11.97;9.03;;;12.00;99.90;;;;;;5016142;28;20438;-74
2023/01/08 04:32:26;;;;;;;10.13;8.20;;;11.90;99.90;;;;;;5023007;28;20176;-74
2023/01/08 04:34:52;;;;;;;11.23;8.93;;;11.90;99.90;;;;;;5013476;28;20229;-73
2023/01/08 04:37:17;;;;;;;12.33;9.20;;;11.90;99.90;;;;;;5016840;28;20664;-74
2023/01/08 04:39:43;;;;;;;13.33;9.40;;;11.90;99.90;;;;;;5016014;28;20180;-74
2023/01/08 04:42:08;;;;;;;12.83;10.90;;;11.80;99.90;;;;;;5019366;28;20188;-73
2023/01/08 04:44:34;;;;;;;10.10;8.90;;;11.80;99.90;;;;;;5015246;28;20188;-73
2023/01/08 04:47:00;;;;;;;10.70;9.20;;;11.80;99.90;;;;;;5018392;28;20212;-74
2023/01/08 04:49:25;;;;;;;12.43;9.23;;;11.80;99.90;;;;;;5018218;28;20185;-73
2023/01/08 04:51:51;;;;;;;8.70;7.80;;;11.80;99.90;;;;;;5020775;28;20211;-73
2023/01/08 04:54:16;;;;;;;10.10;8.10;;;11.70;99.90;;;;;;5018946;28;20894;-74
2023/01/08 04:56:42;;;;;;;9.27;8.27;;;11.80;99.90;;;;;;5019629;28;20200;-74
2023/01/08 04:59:07;;;;;;;12.33;8.90;;;11.80;99.90;;;;;;5016853;28;20651;-74
2023/01/08 05:01:33;;;;;;;10.83;8.67;;;11.80;99.90;;;;;;5018580;28;20234;-74
2023/01/08 05:04:01;;;;;;;9.87;8.30;;;11.80;99.90;;;;;;5017107;28;20188;-73
2023/01/08 05:06:28;;;;;;;9.80;8.13;;;11.80;99.90;;;;;;5020213;28;20306;-73
2023/01/08 05:08:54;;;;;;;10.77;7.80;;;11.70;99.90;;;;;;5014556;28;20513;-74
2023/01/08 05:11:20;;;;;;;11.17;7.90;;;11.70;99.90;;;;;;5018501;28;20415;-74
2023/01/08 05:13:51;;;;;;;9.57;7.07;;;11.70;99.90;;;;;;5016881;28;20439;-74
2023/01/08 05:16:17;;;;;;;8.97;7.07;;;11.70;99.90;;;;;;5016755;28;20463;-74
2023/01/08 05:18:44;;;;;;;7.53;6.30;;;11.70;99.90;;;;;;5016272;28;20450;-74
2023/01/08 05:21:09;;;;;;;8.37;6.70;;;11.70;99.90;;;;;;5018979;28;20439;-74
2023/01/08 05:23:35;;;;;;;6.93;5.40;;;11.60;99.90;;;;;;5017317;28;20470;-75
2023/01/08 05:26:03;;;;;;;10.37;5.83;;;11.50;99.90;;;;;;5015991;28;20582;-74
2023/01/08 05:28:30;;;;;;;6.20;5.57;;;11.50;99.90;;;;;;5018142;28;20204;-73
2023/01/08 05:30:56;;;;;;;7.80;5.83;;;11.50;99.90;;;;;;5017264;28;20911;-73
2023/01/08 05:33:22;;;;;;;5.50;5.00;;;11.40;99.90;;;;;;5018662;28;20424;-73
2023/01/08 05:35:48;;;;;;;6.87;4.80;;;11.40;99.90;;;;;;5016645;28;20834;-73
2023/01/08 05:38:13;;;;;;;6.60;5.00;;;11.40;99.90;;;;;;5014137;28;20419;-74
2023/01/08 05:40:39;;;;;;;8.30;5.27;;;11.30;99.90;;;;;;5020498;28;20253;-75
2023/01/08 05:43:05;;;;;;;5.83;4.57;;;11.30;99.90;;;;;;5016820;28;20215;-74
2023/01/08 05:45:32;;;;;;;6.13;5.17;;;11.30;99.90;;;;;;5016349;28;20274;-75
2023/01/08 05:47:57;;;;;;;7.40;4.20;;;11.20;99.90;;;;;;5017000;28;20210;-75
2023/01/08 05:50:23;;;;;;;5.90;4.83;;;11.20;99.90;;;;;;5016654;28;20427;-75
2023/01/08 05:52:48;;;;;;;4.43;3.60;;;11.10;99.90;;;;;;5019381;28;20177;-75
2023/01/08 05:55:14;;;;;;;4.60;3.87;;;11.10;99.90;;;;;;5012016;28;20263;-74
2023/01/08 05:57:40;;;;;;;5.20;4.47;;;11.10;99.90;;;;;;5010370;28;20189;-73
2023/01/08 06:00:08;;;;;;;5.50;4.50;;;10.90;99.90;;;;;;5016651;28;20447;-74
2023/01/08 06:02:34;;;;;;;5.83;4.57;;;10.90;99.90;;;;;;5017236;28;20207;-74
2023/01/08 06:05:00;;;;;;;4.80;4.30;;;11.00;99.90;;;;;;5016538;28;20420;-74
2023/01/08 06:07:28;;;;;;;9.43;5.60;;;11.00;99.90;;;;;;5015981;28;20205;-73
2023/01/08 06:09:53;;;;;;;7.60;5.50;;;11.10;99.90;;;;;;5018229;28;20187;-74
2023/01/08 06:12:19;;;;;;;5.70;5.10;;;11.10;99.90;;;;;;5015872;28;20427;-74
2023/01/08 06:14:44;;;;;;;6.13;4.90;;;11.10;99.90;;;;;;5019950;28;20207;-73
2023/01/08 06:17:10;;;;;;;7.90;5.03;;;11.10;99.90;;;;;;5018801;28;20970;-74
2023/01/08 06:19:35;;;;;;;6.80;5.40;;;11.10;99.90;;;;;;5019796;28;20237;-74
2023/01/08 06:22:01;;;;;;;5.90;5.30;;;11.10;99.90;;;;;;5016540;28;20192;-74
2023/01/08 06:24:26;;;;;;;5.73;5.13;;;11.10;99.90;;;;;;5017479;28;20173;-74
2023/01/08 06:26:52;;;;;;;6.20;4.73;;;11.00;99.90;;;;;;5015008;28;20208;-74
2023/01/08 06:29:18;;;;;;;7.33;4.77;;;11.10;99.90;;;;;;5017660;28;20185;-74
2023/01/08 06:31:43;;;;;;;6.90;4.80;;;11.10;99.90;;;;;;5016127;28;20208;-73
2023/01/08 06:34:09;;;;;;;6.37;4.70;;;11.10;99.90;;;;;;5015117;28;20191;-74
2023/01/08 06:36:35;;;;;;;5.77;4.60;;;11.20;99.90;;;;;;5015926;28;20226;-74
2023/01/08 06:39:01;;;;;;;5.57;4.57;;;11.20;99.90;;;;;;5014123;28;21048;-73
2023/01/08 06:41:26;;;;;;;5.03;4.50;;;11.10;99.90;;;;;;5016142;28;20181;-74
2023/01/08 06:43:52;;;;;;;4.67;4.10;;;11.20;99.90;;;;;;5017171;28;20568;-76
2023/01/08 06:46:17;;;;;;;7.70;4.30;;;11.20;99.90;;;;;;5019113;28;20368;-74
2023/01/08 06:48:43;;;;;;;8.00;4.23;;;11.20;99.90;;;;;;5015988;28;20201;-74
2023/01/08 06:51:08;;;;;;;5.40;3.90;;;11.30;99.90;;;;;;5014939;28;20196;-74
2023/01/08 06:53:34;;;;;;;5.43;4.10;;;11.30;99.90;;;;;;5015289;28;20177;-75
2023/01/08 06:56:02;;;;;;;5.23;3.87;;;11.40;99.90;;;;;;5015943;28;20204;-75
2023/01/08 06:58:29;;;;;;;6.30;4.50;;;11.40;99.90;;;;;;5013820;28;20665;-73
2023/01/08 07:00:54;;;;;;;6.80;4.17;;;11.40;99.90;;;;;;5013298;28;20839;-74
2023/01/08 07:03:20;;;;;;;8.53;4.57;;;11.40;99.90;;;;;;5015856;28;20524;-74
2023/01/08 07:05:46;;;;;;;4.50;3.77;;;11.30;99.90;;;;;;5015966;28;20692;-75
2023/01/08 07:08:15;;;;;;;6.60;4.50;;;11.30;99.90;;;;;;5018096;28;20841;-74
2023/01/08 07:10:42;;;;;;;4.50;3.97;;;11.30;99.90;;;;;;5014920;28;20180;-74
2023/01/08 07:13:08;;;;;;;8.73;4.43;;;11.40;99.90;;;;;;5017057;28;20443;-73
2023/01/08 07:15:36;;;;;;;4.77;3.87;;;11.40;99.90;;;;;;5013961;28;21051;-74
2023/01/08 07:18:04;;;;;;;5.03;4.00;;;11.30;99.90;;;;;;5014199;28;20185;-73
2023/01/08 07:20:31;;;;;;;5.17;4.17;;;11.30;99.90;;;;;;5012764;28;20481;-74
2023/01/08 07:23:01;;;;;;;5.40;4.10;;;11.40;99.90;;;;;;5011176;28;20813;-73
2023/01/08 07:25:26;;;;;;;5.27;3.83;;;11.40;99.90;;;;;;5016006;28;20428;-73
2023/01/08 07:27:52;;;;;;;5.10;4.50;;;11.40;99.90;;;;;;5021560;28;20470;-73
2023/01/08 07:30:17;;;;;;;4.80;4.10;;;11.40;99.90;;;;;;5016939;28;20192;-73
2023/01/08 07:32:43;;;;;;;6.50;4.20;;;11.50;99.90;;;;;;5022614;28;20176;-73
2023/01/08 07:35:08;;;;;;;6.70;4.03;;;11.50;99.90;;;;;;5017884;28;20459;-73
2023/01/08 07:37:38;;;;;;;7.03;3.50;;;11.50;99.90;;;;;;5016626;28;20290;-73
2023/01/08 07:40:05;;;;;;;5.30;3.47;;;11.50;99.90;;;;;;5016616;28;20282;-74
2023/01/08 07:42:30;;;;;;;4.37;3.40;;;11.50;99.90;;;;;;5017111;28;20446;-74
2023/01/08 07:44:56;;;;;;;3.60;3.30;;;11.50;99.90;;;;;;5014439;28;21146;-74
2023/01/08 07:47:21;;;;;;;6.53;3.33;;;11.50;99.90;;;;;;5016706;28;20646;-74
2023/01/08 07:49:47;;;;;;;3.30;3.00;;;11.50;99.90;;;;;;5008854;28;20653;-73
2023/01/08 07:52:12;;;;;;;5.23;3.53;;;11.50;99.90;;;;;;5018880;28;20191;-73
2023/01/08 07:54:38;;;;;;;4.80;3.77;;;11.50;99.90;;;;;;5011751;28;20204;-73
2023/01/08 07:57:04;;;;;;;4.70;3.27;;;11.50;99.90;;;;;;5008531;28;20226;-74
2023/01/08 07:59:29;;;;;;;3.87;3.27;;;11.50;99.90;;;;;;5012732;28;20596;-74
2023/01/08 08:01:55;;;;;;;6.50;3.23;;;11.50;99.90;;;;;;5015645;28;20188;-74
2023/01/08 08:04:20;;;;;;;6.13;3.50;;;11.40;99.90;;;;;;5013640;28;20177;-74
2023/01/08 08:06:46;;;;;;;3.70;3.30;;;11.40;99.90;;;;;;5015978;28;20208;-74
2023/01/08 08:09:11;;;;;;;4.40;3.30;;;11.40;99.90;;;;;;5015357;28;20255;-74
2023/01/08 08:11:37;;;;;;;4.47;3.40;;;11.40;99.90;;;;;;5015491;28;20567;-74
2023/01/08 08:14:03;;;;;;;4.30;3.60;;;11.40;99.90;;;;;;5017049;28;20822;-73
2023/01/08 08:16:29;;;;;;;3.57;2.90;;;11.50;99.90;;;;;;5017756;28;20231;-73
2023/01/08 08:18:57;;;;;;;4.00;3.57;;;11.40;99.90;;;;;;5013697;28;20786;-73
2023/01/08 08:21:23;;;;;;;5.90;2.80;;;11.40;99.90;;;;;;5011449;28;20177;-75
2023/01/08 08:23:48;;;;;;;6.03;3.70;;;11.40;99.90;;;;;;5015747;28;20444;-73
2023/01/08 08:26:14;;;;;;;3.83;3.43;;;11.40;99.90;;;;;;5016371;28;20204;-73
2023/01/08 08:28:40;;;;;;;4.93;3.80;;;11.40;99.90;;;;;;5017433;28;20576;-73
2023/01/08 08:31:05;;;;;;;4.40;3.43;;;11.30;99.90;;;;;;5016002;28;20224;-73
2023/01/08 08:33:31;;;;;;;4.03;3.40;;;11.40;99.90;;;;;;5015656;28;20188;-74
2023/01/08 08:35:57;;;;;;;4.57;3.70;;;11.30;99.90;;;;;;5015264;28;20200;-73
2023/01/08 08:38:23;;;;;;;5.20;4.23;;;11.30;99.90;;;;;;5012248;28;20177;-73
2023/01/08 08:40:49;;;;;;;15.27;6.60;;;11.30;99.90;;;;;;5013361;28;20187;-77
2023/01/08 08:43:15;;;;;;;5.87;4.47;;;11.30;99.90;;;;;;5008532;28;20418;-75
2023/01/08 08:45:40;;;;;;;8.50;4.00;;;11.30;99.90;;;;;;5009788;28;20573;-74
2023/01/08 08:48:06;;;;;;;7.53;3.83;;;11.20;99.90;;;;;;5010321;28;20207;-75
2023/01/08 08:50:33;;;;;;;6.50;4.23;;;11.10;99.90;;;;;;5010626;28;20192;-75
2023/01/08 08:53:00;;;;;;;5.50;3.73;;;11.10;99.90;;;;;;5012133;28;20418;-75
2023/01/08 08:55:26;;;;;;;7.37;4.43;;;11.20;99.90;;;;;;5012978;28;20534;-75
2023/01/08 08:57:52;;;;;;;5.60;4.23;;;11.20;99.90;;;;;;5014865;28;20451;-74
2023/01/08 09:00:18;;;;;;;7.03;4.17;;;11.30;99.90;;;;;;5012168;28;20470;-75
2023/01/08 09:02:43;;;;;;;5.40;4.10;;;11.30;99.90;;;;;;5011885;28;20196;-76
2023/01/08 09:05:10;;;;;;;7.03;4.20;;;11.30;99.90;;;;;;5013454;28;20426;-75
2023/01/08 09:07:36;;;;;;;5.13;4.13;;;11.30;99.90;;;;;;5013281;28;20311;-75
2023/01/08 09:10:02;;;;;;;6.70;4.37;;;11.40;99.90;;;;;;5012526;28;20439;-75
2023/01/08 09:12:28;;;;;;;6.00;4.30;;;11.40;99.90;;;;;;5018095;28;20431;-76
2023/01/08 09:14:55;;;;;;;5.23;4.00;;;11.30;99.90;;;;;;5013847;28;20527;-75
2023/01/08 09:17:21;;;;;;;5.50;4.77;;;11.40;99.90;;;;;;5013292;28;20299;-76
2023/01/08 09:19:47;;;;;;;4.80;4.27;;;11.40;99.90;;;;;;5009516;28;20815;-75
2023/01/08 09:22:12;;;;;;;6.60;5.23;;;11.40;99.90;;;;;;5017244;28;20426;-75
2023/01/08 09:24:38;;;;;;;5.63;4.20;;;11.40;99.90;;;;;;5014194;28;20251;-74
2023/01/08 09:27:04;;;;;;;6.40;3.93;;;11.40;99.90;;;;;;5016834;28;20225;-75
2023/01/08 09:29:29;;;;;;;5.10;4.60;;;11.30;99.90;;;;;;5013990;28;20173;-75
2023/01/08 09:31:56;;;;;;;4.60;3.80;;;11.20;99.90;;;;;;5011067;28;20186;-76
2023/01/08 09:34:22;;;;;;;4.20;3.80;;;11.20;99.90;;;;;;5012434;28;20176;-75
2023/01/08 09:36:47;;;;;;;6.37;5.00;;;11.20;99.90;;;;;;5016653;28;20459;-76
2023/01/08 09:39:13;;;;;;;5.03;4.00;;;11.30;99.90;;;;;;5015486;28;20658;-76
2023/01/08 09:41:44;;;;;;;5.00;4.23;;;11.30;99.90;;;;;;5013969;28;20181;-75
2023/01/08 09:44:14;;;;;;;4.70;3.70;;;11.30;99.90;;;;;;5014112;28;21201;-75
2023/01/08 09:46:41;;;;;;;6.33;4.13;;;11.10;99.90;;;;;;5016380;28;20526;-76
2023/01/08 09:49:15;;;;;;;4.57;3.73;;;11.20;99.90;;;;;;5013188;28;20507;-77
2023/01/08 09:51:40;;;;;;;5.70;3.97;;;11.30;99.90;;;;;;5019058;28;20485;-77
2023/01/08 09:54:13;;;;;;;7.77;4.03;;;11.10;99.90;;;;;;5010579;28;20956;-77
2023/01/08 09:56:39;;;;;;;3.63;3.30;;;11.20;99.90;;;;;;5010244;28;20211;-76
2023/01/08 09:59:06;;;;;;;3.70;3.10;;;11.30;99.90;;;;;;5009852;28;20417;-76
2023/01/08 10:01:36;;;;;;;3.67;3.23;;;11.30;99.90;;;;;;5014115;28;20192;-76
2023/01/08 10:04:18;;;;;;;3.93;3.10;;;11.30;99.90;;;;;;5010550;28;20443;-76
2023/01/08 10:06:58;;;;;;;3.30;2.87;;;11.20;99.90;;;;;;5018270;28;20447;-76
2023/01/08 10:09:28;;;;;;;3.50;2.90;;;11.20;99.90;;;;;;5013552;28;20438;-75
2023/01/08 10:11:57;;;;;;;3.90;2.30;;;11.20;99.90;;;;;;5016520;28;20428;-76
2023/01/08 10:14:26;;;;;;;2.93;2.63;;;11.30;99.90;;;;;;5014834;28;20510;-76
2023/01/08 10:16:57;;;;;;;3.67;2.57;;;11.30;99.90;;;;;;5012611;28;20549;-76
2023/01/08 10:19:23;;;;;;;4.73;2.47;;;11.30;99.90;;;;;;5009435;28;20427;-76
2023/01/08 10:21:49;;;;;;;3.50;2.10;;;11.30;99.90;;;;;;5007010;28;20987;-76
2023/01/08 10:24:15;;;;;;;3.20;2.10;;;11.30;99.90;;;;;;5018531;28;20191;-76
2023/01/08 10:26:40;;;;;;;3.50;2.07;;;11.40;99.90;;;;;;5016682;28;20856;-76
2023/01/08 10:29:17;;;;;;;2.47;2.10;;;11.40;99.90;;;;;;5016046;28;20470;-75
2023/01/08 10:31:57;;;;;;;2.37;1.70;;;11.40;99.90;;;;;;5017684;28;20177;-76
2023/01/08 10:34:44;;;;;;;2.87;1.80;;;11.40;99.90;;;;;;5018845;28;20460;-75
2023/01/08 10:37:28;;;;;;;3.33;1.80;;;11.40;99.90;;;;;;5015890;28;20541;-75
2023/01/08 10:40:01;;;;;;;2.60;2.00;;;11.40;99.90;;;;;;5010571;28;20443;-75
2023/01/08 10:42:26;;;;;;;4.67;2.07;;;11.40;99.90;;;;;;5012330;28;20902;-75
2023/01/08 10:45:02;;;;;;;5.60;2.13;;;11.50;99.90;;;;;;5011661;28;20447;-75
2023/01/08 10:47:31;;;;;;;3.33;1.73;;;11.60;99.90;;;;;;5012562;28;20231;-76
2023/01/08 10:49:58;;;;;;;3.37;1.90;;;11.60;99.90;;;;;;5017729;28;20459;-75
2023/01/08 10:52:31;;;;;;;3.37;2.20;;;11.60;99.90;;;;;;5018848;28;20447;-75
2023/01/08 10:55:09;;;;;;;2.50;2.00;;;11.60;99.90;;;;;;5012865;28;20439;-75
2023/01/08 10:57:35;;;;;;;3.30;2.17;;;11.60;99.90;;;;;;5014268;28;21009;-75
2023/01/08 11:00:00;;;;;;;2.60;2.03;;;11.80;99.90;;;;;;5010094;28;20457;-75
2023/01/08 11:02:33;;;;;;;4.93;2.47;;;11.70;99.90;;;;;;5017202;28;20212;-75
2023/01/08 11:05:00;;;;;;;2.37;1.80;;;11.70;99.90;;;;;;5016170;28;20697;-74
2023/01/08 11:07:26;;;;;;;2.40;1.70;;;11.70;99.90;;;;;;5022401;28;21245;-75
2023/01/08 11:09:53;;;;;;;6.30;1.90;;;11.80;99.90;;;;;;5017375;28;20447;-75
2023/01/08 11:12:27;;;;;;;4.17;2.40;;;11.80;99.90;;;;;;5007482;28;21018;-76
2023/01/08 11:14:53;;;;;;;2.00;1.80;;;11.90;99.90;;;;;;5011652;28;20443;-75
2023/01/08 11:17:18;;;;;;;2.03;1.67;;;11.80;99.90;;;;;;5016188;28;20527;-76
2023/01/08 11:19:44;;;;;;;2.73;1.87;;;11.90;99.90;;;;;;5012302;28;20606;-73
2023/01/08 11:22:22;;;;;;;3.50;1.80;;;12.00;99.90;;;;;;5014960;28;20196;-74
2023/01/08 11:24:50;;;;;;;2.30;1.70;;;12.00;99.90;;;;;;5015204;28;20199;-76
2023/01/08 11:27:23;;;;;;;2.77;2.07;;;12.10;99.90;;;;;;5013143;28;20497;-76
2023/01/08 11:29:58;;;;;;;3.20;2.20;;;12.00;99.90;;;;;;5022320;28;20504;-82
2023/01/08 11:32:32;;;;;;;4.33;2.40;;;12.10;99.90;;;;;;5008057;28;20878;-74
2023/01/08 11:35:03;;;;;;;2.10;1.60;;;12.30;99.90;;;;;;5013789;28;20816;-73
2023/01/08 11:37:38;;;;;;;3.63;2.13;;;12.40;99.90;;;;;;5011448;28;20544;-73
2023/01/08 11:40:14;;;;;;;3.07;2.00;;;12.50;99.90;;;;;;5012622;28;20458;-73
2023/01/08 11:42:50;;;;;;;2.23;1.63;;;12.60;99.90;;;;;;5009768;28;20456;-73
2023/01/08 11:45:29;;;;;;;3.60;2.27;;;12.60;99.90;;;;;;5009848;28;20468;-74
2023/01/08 11:48:07;;;;;;;2.67;1.60;;;12.60;99.90;;;;;;5013878;28;20597;-74
2023/01/08 11:50:56;;;;;;;3.40;1.93;;;12.80;99.90;;;;;;5016828;28;20558;-74
2023/01/08 11:53:43;;;;;;;3.87;2.07;;;12.80;99.90;;;;;;5011970;28;20489;-74
2023/01/08 11:56:19;;;;;;;2.33;1.60;;;12.90;99.90;;;;;;5007931;28;21026;-74
2023/01/08 11:59:09;;;;;;;2.30;1.70;;;13.00;99.90;;;;;;5014338;28;20930;-74
2023/01/08 12:01:49;;;;;;;2.67;1.83;;;13.00;99.90;;;;;;5008558;28;20500;-74
2023/01/08 12:04:28;;;;;;;1.93;1.67;;;12.90;99.90;;;;;;5014710;28;20438;-73
2023/01/08 12:07:00;;;;;;;1.93;1.43;;;12.80;99.90;;;;;;5009581;28;20445;-73
2023/01/08 12:09:39;;;;;;;2.97;2.00;;;13.00;99.90;;;;;;5012406;28;20432;-74
2023/01/08 12:12:33;;;;;;;3.07;1.77;;;13.00;99.90;;;;;;5010532;28;20432;-75
2023/01/08 12:15:25;;;;;;;2.50;1.80;;;13.00;99.90;;;;;;5012879;28;20819;-75
2023/01/08 12:18:23;;;;;;;1.90;1.57;;;12.90;99.90;;;;;;5014558;28;20434;-74
2023/01/08 12:21:13;;;;;;;2.40;1.60;;;12.80;99.90;;;;;;5016843;28;20447;-71
2023/01/08 12:24:06;;;;;;;2.87;1.70;;;12.80;99.90;;;;;;5016060;28;20479;-72
2023/01/08 12:26:38;;;;;;;2.20;1.50;;;12.80;99.90;;;;;;5012068;28;20696;-75
2023/01/08 12:29:29;;;;;;;2.00;1.40;;;12.80;99.90;;;;;;5011807;28;20564;-73
2023/01/08 12:32:24;;;;;;;1.90;1.40;;;12.70;99.90;;;;;;5012174;28;20474;-72
2023/01/08 12:35:06;;;;;;;3.17;2.17;;;12.60;99.90;;;;;;5015877;28;20431;-71
2023/01/08 12:37:34;;;;;;;3.50;1.70;;;12.60;99.90;;;;;;5007475;28;20451;-70
2023/01/08 12:40:13;;;;;;;3.43;1.80;;;12.60;99.90;;;;;;5012550;28;20444;-71
2023/01/08 12:42:42;;;;;;;2.07;1.53;;;12.70;99.90;;;;;;5017826;28;20926;-71
2023/01/08 12:45:31;;;;;;;2.33;1.80;;;12.70;99.90;;;;;;5014661;28;20556;-70
2023/01/08 12:48:26;;;;;;;1.90;1.40;;;12.60;99.90;;;;;;5012646;28;20965;-71
2023/01/08 12:51:10;;;;;;;1.87;1.40;;;12.70;99.90;;;;;;5013607;28;20434;-70
2023/01/08 12:53:50;;;;;;;2.83;1.50;;;12.80;99.90;;;;;;5009710;28;20449;-70